WXM80 ListenWXM80 Stop

You find our weather info also at:

UK Metoffice

WeatherCloud

Weather Underground

Northeastern Weather Network

AWEKAS

Citizen Weather Observer Program (CWOP)

HAMweather, WeatherForYou, PWS Weather


Weather Underground History page Text

Daily Summary for April 23, 2017 Units:  Both    English   Metric
« Previous Day
Next Day »
Daily Weekly Monthly Yearly Custom
  High: Low: Average:
Temperature: 65.8 °F /  18.8 °C 44.2 °F /  6.8 °C 53.1 °F /  11.7 °C
Dew Point: 47.0 °F /  8.3 °C 40.6 °F /  4.8 °C 43.1 °F /  6.2 °C
Humidity: 90 % 42 % 71 %
Wind Speed: 8.2 mph /  13.2 km/h - 1.6 mph /  2.6 km/h
Wind Gust: 11.5 mph /  18.5 km/h - -
Wind:- - South
Pressure: 30.11 in /  1019.5 hPa 29.97 in /  1014.8 hPa -
Precipitation: 0.00 in /  0 mm    
Historical Graphs
 
 
Tabular Data for April 23, 2017
Time Temperature Dew Point Pressure Wind Wind Speed Wind Gust Humidity Rainfall Rate (Hourly)
00:02 49.4 °F /  9.7 °C 44.1 °F /  6.7 °C 29.97 in /  1014.8 hPa NW 1.3 mph /  2.1 km/h 3.5 mph /  5.6 km/h 82 % 0.00 in /  0 mm
00:08 49.4 °F /  9.7 °C 44.1 °F /  6.7 °C 29.97 in /  1014.8 hPa NW 2.7 mph /  4.3 km/h 4.6 mph /  7.4 km/h 82 % 0.00 in /  0 mm
00:13 49.4 °F /  9.7 °C 44.1 °F /  6.7 °C 29.97 in /  1014.8 hPa NNE 2.6 mph /  4.2 km/h 10.0 mph /  16.1 km/h 82 % 0.00 in /  0 mm
00:18 49.3 °F /  9.6 °C 43.7 °F /  6.5 °C 29.97 in /  1014.8 hPa North 2.7 mph /  4.3 km/h 4.6 mph /  7.4 km/h 81 % 0.00 in /  0 mm
00:23 49.2 °F /  9.6 °C 43.6 °F /  6.4 °C 29.98 in /  1015.1 hPa North 3.0 mph /  4.8 km/h 8.1 mph /  13 km/h 81 % 0.00 in /  0 mm
00:28 49.1 °F /  9.5 °C 43.8 °F /  6.6 °C 29.99 in /  1015.5 hPa NNE 0.6 mph /  1 km/h 4.6 mph /  7.4 km/h 82 % 0.00 in /  0 mm
00:33 49.1 °F /  9.5 °C 43.8 °F /  6.6 °C 29.99 in /  1015.5 hPa North 0.7 mph /  1.1 km/h 2.3 mph /  3.7 km/h 82 % 0.00 in /  0 mm
00:38 49.0 °F /  9.4 °C 43.7 °F /  6.5 °C 29.99 in /  1015.5 hPa Calm   2.3 mph /  3.7 km/h 82 % 0.00 in /  0 mm
00:43 48.9 °F /  9.4 °C 43.6 °F /  6.4 °C 29.99 in /  1015.5 hPa Calm     82 % 0.00 in /  0 mm
00:48 48.7 °F /  9.3 °C 43.5 °F /  6.4 °C 29.98 in /  1015.1 hPa NW 0.6 mph /  1 km/h 3.5 mph /  5.6 km/h 82 % 0.00 in /  0 mm
00:53 48.6 °F /  9.2 °C 43.7 °F /  6.5 °C 29.99 in /  1015.5 hPa NNW 1.0 mph /  1.6 km/h 5.0 mph /  8 km/h 83 % 0.00 in /  0 mm
00:58 48.4 °F /  9.1 °C 43.5 °F /  6.4 °C 29.98 in /  1015.1 hPa NE 1.2 mph /  1.9 km/h 2.3 mph /  3.7 km/h 83 % 0.00 in /  0 mm
01:03 48.3 °F /  9.1 °C 43.4 °F /  6.3 °C 29.99 in /  1015.5 hPa NNW 1.4 mph /  2.3 km/h 3.5 mph /  5.6 km/h 83 % 0.00 in /  0 mm
01:08 48.2 °F /  9 °C 43.3 °F /  6.3 °C 29.99 in /  1015.5 hPa NNW 0.6 mph /  1 km/h 4.6 mph /  7.4 km/h 83 % 0.00 in /  0 mm
01:13 48.0 °F /  8.9 °C 43.4 °F /  6.3 °C 29.99 in /  1015.5 hPa Calm   3.5 mph /  5.6 km/h 84 % 0.00 in /  0 mm
01:18 47.9 °F /  8.8 °C 43.3 °F /  6.3 °C 29.99 in /  1015.5 hPa NW 0.6 mph /  1 km/h 2.3 mph /  3.7 km/h 84 % 0.00 in /  0 mm
01:23 47.8 °F /  8.8 °C 43.2 °F /  6.2 °C 29.99 in /  1015.5 hPa NW 0.7 mph /  1.1 km/h 2.3 mph /  3.7 km/h 84 % 0.00 in /  0 mm
01:28 47.7 °F /  8.7 °C 43.1 °F /  6.2 °C 29.99 in /  1015.5 hPa NNW 1.5 mph /  2.4 km/h 3.5 mph /  5.6 km/h 84 % 0.00 in /  0 mm
01:33 47.6 °F /  8.7 °C 43.0 °F /  6.1 °C 30.00 in /  1015.8 hPa NE 1.4 mph /  2.3 km/h 3.5 mph /  5.6 km/h 84 % 0.00 in /  0 mm
01:38 47.5 °F /  8.6 °C 43.2 °F /  6.2 °C 29.99 in /  1015.5 hPa NE 1.1 mph /  1.8 km/h 2.3 mph /  3.7 km/h 85 % 0.00 in /  0 mm
01:43 47.4 °F /  8.6 °C 42.8 °F /  6 °C 29.99 in /  1015.5 hPa Calm   1.2 mph /  1.9 km/h 84 % 0.00 in /  0 mm
01:48 47.3 °F /  8.5 °C 43.0 °F /  6.1 °C 29.99 in /  1015.5 hPa NW 0.3 mph /  0.5 km/h 2.3 mph /  3.7 km/h 85 % 0.00 in /  0 mm
01:53 47.1 °F /  8.4 °C 42.8 °F /  6 °C 29.99 in /  1015.5 hPa NNE 1.3 mph /  2.1 km/h 3.5 mph /  5.6 km/h 85 % 0.00 in /  0 mm
01:58 47.0 °F /  8.3 °C 42.7 °F /  5.9 °C 29.99 in /  1015.5 hPa North 0.2 mph /  0.3 km/h 1.2 mph /  1.9 km/h 85 % 0.00 in /  0 mm
02:03 46.9 °F /  8.3 °C 42.6 °F /  5.9 °C 29.98 in /  1015.1 hPa North 3.0 mph /  4.8 km/h 4.6 mph /  7.4 km/h 85 % 0.00 in /  0 mm
02:08 46.9 °F /  8.3 °C 42.6 °F /  5.9 °C 29.98 in /  1015.1 hPa North 1.8 mph /  2.9 km/h 3.5 mph /  5.6 km/h 85 % 0.00 in /  0 mm
02:13 46.8 °F /  8.2 °C 42.8 °F /  6 °C 29.99 in /  1015.5 hPa Calm   1.2 mph /  1.9 km/h 86 % 0.00 in /  0 mm
02:19 46.7 °F /  8.2 °C 42.7 °F /  5.9 °C 29.98 in /  1015.1 hPa North 0.2 mph /  0.3 km/h 1.2 mph /  1.9 km/h 86 % 0.00 in /  0 mm
02:24 46.6 °F /  8.1 °C 42.6 °F /  5.9 °C 29.98 in /  1015.1 hPa NNW 0.6 mph /  1 km/h 2.3 mph /  3.7 km/h 86 % 0.00 in /  0 mm
02:29 46.5 °F /  8.1 °C 42.5 °F /  5.8 °C 29.99 in /  1015.5 hPa Calm   2.3 mph /  3.7 km/h 86 % 0.00 in /  0 mm
02:34 46.5 °F /  8.1 °C 42.5 °F /  5.8 °C 29.98 in /  1015.1 hPa Calm   1.2 mph /  1.9 km/h 86 % 0.00 in /  0 mm
02:39 46.5 °F /  8.1 °C 42.5 °F /  5.8 °C 29.99 in /  1015.5 hPa NW 0.7 mph /  1.1 km/h 2.3 mph /  3.7 km/h 86 % 0.00 in /  0 mm
02:44 46.4 °F /  8 °C 42.4 °F /  5.8 °C 29.99 in /  1015.5 hPa NW 0.1 mph /  0.2 km/h 1.0 mph /  1.6 km/h 86 % 0.00 in /  0 mm
02:49 46.4 °F /  8 °C 42.4 °F /  5.8 °C 29.99 in /  1015.5 hPa NW 1.2 mph /  1.9 km/h 3.5 mph /  5.6 km/h 86 % 0.00 in /  0 mm
02:54 46.3 °F /  7.9 °C 42.3 °F /  5.7 °C 29.99 in /  1015.5 hPa NW 0.6 mph /  1 km/h 2.3 mph /  3.7 km/h 86 % 0.00 in /  0 mm
02:59 46.2 °F /  7.9 °C 42.2 °F /  5.7 °C 29.99 in /  1015.5 hPa NW 1.0 mph /  1.6 km/h 2.3 mph /  3.7 km/h 86 % 0.00 in /  0 mm
03:04 46.1 °F /  7.8 °C 42.1 °F /  5.6 °C 29.99 in /  1015.5 hPa NW 0.1 mph /  0.2 km/h 2.3 mph /  3.7 km/h 86 % 0.00 in /  0 mm
03:09 46.0 °F /  7.8 °C 42.0 °F /  5.6 °C 30.00 in /  1015.8 hPa NW 0.2 mph /  0.3 km/h 1.0 mph /  1.6 km/h 86 % 0.00 in /  0 mm
03:14 45.8 °F /  7.7 °C 42.2 °F /  5.7 °C 30.00 in /  1015.8 hPa NW 0.4 mph /  0.6 km/h 1.2 mph /  1.9 km/h 87 % 0.00 in /  0 mm
03:19 45.7 °F /  7.6 °C 42.1 °F /  5.6 °C 30.00 in /  1015.8 hPa NW 1.1 mph /  1.8 km/h 2.3 mph /  3.7 km/h 87 % 0.00 in /  0 mm
03:24 45.5 °F /  7.5 °C 41.9 °F /  5.5 °C 30.00 in /  1015.8 hPa NW 0.7 mph /  1.1 km/h 2.3 mph /  3.7 km/h 87 % 0.00 in /  0 mm
03:29 45.4 °F /  7.4 °C 42.1 °F /  5.6 °C 30.00 in /  1015.8 hPa Calm   1.2 mph /  1.9 km/h 88 % 0.00 in /  0 mm
03:34 45.4 °F /  7.4 °C 42.1 °F /  5.6 °C 30.00 in /  1015.8 hPa Calm   1.2 mph /  1.9 km/h 88 % 0.00 in /  0 mm
03:39 45.3 °F /  7.4 °C 42.0 °F /  5.6 °C 30.00 in /  1015.8 hPa Calm   1.0 mph /  1.6 km/h 88 % 0.00 in /  0 mm
03:44 45.1 °F /  7.3 °C 41.8 °F /  5.4 °C 30.00 in /  1015.8 hPa Calm   1.2 mph /  1.9 km/h 88 % 0.00 in /  0 mm
03:49 45.0 °F /  7.2 °C 41.7 °F /  5.4 °C 30.00 in /  1015.8 hPa NW 0.4 mph /  0.6 km/h 2.3 mph /  3.7 km/h 88 % 0.00 in /  0 mm
03:54 44.9 °F /  7.2 °C 41.9 °F /  5.5 °C 30.00 in /  1015.8 hPa Calm   1.2 mph /  1.9 km/h 89 % 0.00 in /  0 mm
03:59 44.8 °F /  7.1 °C 41.5 °F /  5.3 °C 29.99 in /  1015.5 hPa Calm   1.2 mph /  1.9 km/h 88 % 0.00 in /  0 mm
04:04 44.7 °F /  7.1 °C 41.7 °F /  5.4 °C 30.00 in /  1015.8 hPa NW 0.3 mph /  0.5 km/h 1.2 mph /  1.9 km/h 89 % 0.00 in /  0 mm
04:09 44.6 °F /  7 °C 41.6 °F /  5.3 °C 30.00 in /  1015.8 hPa NW 0.1 mph /  0.2 km/h 1.2 mph /  1.9 km/h 89 % 0.00 in /  0 mm
04:14 44.5 °F /  6.9 °C 41.5 °F /  5.3 °C 30.01 in /  1016.1 hPa NW 0.1 mph /  0.2 km/h 1.2 mph /  1.9 km/h 89 % 0.00 in /  0 mm
04:19 44.5 °F /  6.9 °C 41.5 °F /  5.3 °C 30.00 in /  1015.8 hPa Calm   1.2 mph /  1.9 km/h 89 % 0.00 in /  0 mm
04:24 44.4 °F /  6.9 °C 41.7 °F /  5.4 °C 30.02 in /  1016.5 hPa WNW 0.1 mph /  0.2 km/h 2.0 mph /  3.2 km/h 90 % 0.00 in /  0 mm
04:29 44.4 °F /  6.9 °C 41.7 °F /  5.4 °C 30.02 in /  1016.5 hPa Calm     90 % 0.00 in /  0 mm
04:34 44.4 °F /  6.9 °C 41.7 °F /  5.4 °C 30.02 in /  1016.5 hPa NNW 1.4 mph /  2.3 km/h 2.3 mph /  3.7 km/h 90 % 0.00 in /  0 mm
04:39 44.3 °F /  6.8 °C 41.6 °F /  5.3 °C 30.02 in /  1016.5 hPa NW 0.5 mph /  0.8 km/h 2.3 mph /  3.7 km/h 90 % 0.00 in /  0 mm
04:44 44.3 °F /  6.8 °C 41.6 °F /  5.3 °C 30.01 in /  1016.1 hPa NW 0.3 mph /  0.5 km/h 2.3 mph /  3.7 km/h 90 % 0.00 in /  0 mm
04:49 44.4 °F /  6.9 °C 41.7 °F /  5.4 °C 30.01 in /  1016.1 hPa North 1.2 mph /  1.9 km/h 3.5 mph /  5.6 km/h 90 % 0.00 in /  0 mm
04:54 44.4 °F /  6.9 °C 41.7 °F /  5.4 °C 30.02 in /  1016.5 hPa NNW 0.3 mph /  0.5 km/h 2.0 mph /  3.2 km/h 90 % 0.00 in /  0 mm
04:59 44.4 °F /  6.9 °C 41.7 °F /  5.4 °C 30.01 in /  1016.1 hPa Calm   1.2 mph /  1.9 km/h 90 % 0.00 in /  0 mm
05:04 44.5 °F /  6.9 °C 41.7 °F /  5.4 °C 30.02 in /  1016.5 hPa NNW 0.1 mph /  0.2 km/h 1.2 mph /  1.9 km/h 90 % 0.00 in /  0 mm
05:09 44.5 °F /  6.9 °C 41.7 °F /  5.4 °C 30.02 in /  1016.5 hPa Calm   1.2 mph /  1.9 km/h 90 % 0.00 in /  0 mm
05:14 44.5 °F /  6.9 °C 41.7 °F /  5.4 °C 30.02 in /  1016.5 hPa NNW 1.4 mph /  2.3 km/h 3.5 mph /  5.6 km/h 90 % 0.00 in /  0 mm
05:19 44.5 °F /  6.9 °C 41.7 °F /  5.4 °C 30.02 in /  1016.5 hPa North 1.6 mph /  2.6 km/h 2.3 mph /  3.7 km/h 90 % 0.00 in /  0 mm
05:24 44.5 °F /  6.9 °C 41.7 °F /  5.4 °C 30.03 in /  1016.8 hPa Calm   1.2 mph /  1.9 km/h 90 % 0.00 in /  0 mm
05:29 44.6 °F /  7 °C 41.8 °F /  5.4 °C 30.03 in /  1016.8 hPa NNE 0.4 mph /  0.6 km/h 3.0 mph /  4.8 km/h 90 % 0.00 in /  0 mm
05:34 44.6 °F /  7 °C 41.8 °F /  5.4 °C 30.03 in /  1016.8 hPa North 1.6 mph /  2.6 km/h 3.5 mph /  5.6 km/h 90 % 0.00 in /  0 mm
05:40 44.6 °F /  7 °C 41.8 °F /  5.4 °C 30.03 in /  1016.8 hPa North 3.1 mph /  5 km/h 5.8 mph /  9.3 km/h 90 % 0.00 in /  0 mm
05:45 44.6 °F /  7 °C 41.8 °F /  5.4 °C 30.03 in /  1016.8 hPa NNE 2.8 mph /  4.5 km/h 3.5 mph /  5.6 km/h 90 % 0.00 in /  0 mm
05:50 44.6 °F /  7 °C 41.8 °F /  5.4 °C 30.03 in /  1016.8 hPa NNE 2.3 mph /  3.7 km/h 3.5 mph /  5.6 km/h 90 % 0.00 in /  0 mm
05:55 44.6 °F /  7 °C 41.8 °F /  5.4 °C 30.03 in /  1016.8 hPa NNE 1.3 mph /  2.1 km/h 2.3 mph /  3.7 km/h 90 % 0.00 in /  0 mm
06:00 44.6 °F /  7 °C 41.8 °F /  5.4 °C 30.03 in /  1016.8 hPa Calm   1.0 mph /  1.6 km/h 90 % 0.00 in /  0 mm
06:05 44.6 °F /  7 °C 41.8 °F /  5.4 °C 30.04 in /  1017.2 hPa NNE 1.5 mph /  2.4 km/h 3.5 mph /  5.6 km/h 90 % 0.00 in /  0 mm
06:10 44.5 °F /  6.9 °C 41.7 °F /  5.4 °C 30.04 in /  1017.2 hPa North 1.6 mph /  2.6 km/h 3.5 mph /  5.6 km/h 90 % 0.00 in /  0 mm
06:15 44.5 °F /  6.9 °C 41.7 °F /  5.4 °C 30.05 in /  1017.5 hPa NNE 3.4 mph /  5.5 km/h 4.6 mph /  7.4 km/h 90 % 0.00 in /  0 mm
06:20 44.4 °F /  6.9 °C 41.4 °F /  5.2 °C 30.05 in /  1017.5 hPa NNE 0.6 mph /  1 km/h 3.5 mph /  5.6 km/h 89 % 0.00 in /  0 mm
06:25 44.4 °F /  6.9 °C 41.4 °F /  5.2 °C 30.05 in /  1017.5 hPa NNW 1.4 mph /  2.3 km/h 2.3 mph /  3.7 km/h 89 % 0.00 in /  0 mm
06:30 44.3 °F /  6.8 °C 41.3 °F /  5.2 °C 30.05 in /  1017.5 hPa NNE 0.1 mph /  0.2 km/h 1.2 mph /  1.9 km/h 89 % 0.00 in /  0 mm
06:35 44.3 °F /  6.8 °C 41.3 °F /  5.2 °C 30.05 in /  1017.5 hPa NNE 0.4 mph /  0.6 km/h 3.5 mph /  5.6 km/h 89 % 0.00 in /  0 mm
06:40 44.3 °F /  6.8 °C 41.3 °F /  5.2 °C 30.06 in /  1017.8 hPa NNE 2.5 mph /  4 km/h 4.6 mph /  7.4 km/h 89 % 0.00 in /  0 mm
06:45 44.2 °F /  6.8 °C 41.2 °F /  5.1 °C 30.07 in /  1018.2 hPa NNE 3.0 mph /  4.8 km/h 5.0 mph /  8 km/h 89 % 0.00 in /  0 mm
06:50 44.2 °F /  6.8 °C 41.2 °F /  5.1 °C 30.07 in /  1018.2 hPa North 1.9 mph /  3.1 km/h 3.5 mph /  5.6 km/h 89 % 0.00 in /  0 mm
06:55 44.2 °F /  6.8 °C 41.2 °F /  5.1 °C 30.07 in /  1018.2 hPa North 1.4 mph /  2.3 km/h 3.5 mph /  5.6 km/h 89 % 0.00 in /  0 mm
07:00 44.2 °F /  6.8 °C 41.2 °F /  5.1 °C 30.07 in /  1018.2 hPa NNE 2.8 mph /  4.5 km/h 3.5 mph /  5.6 km/h 89 % 0.00 in /  0 mm
07:05 44.5 °F /  6.9 °C 41.7 °F /  5.4 °C 30.06 in /  1017.8 hPa North 2.5 mph /  4 km/h 3.5 mph /  5.6 km/h 90 % 0.00 in /  0 mm
07:10 44.8 °F /  7.1 °C 42.0 °F /  5.6 °C 30.07 in /  1018.2 hPa North 1.7 mph /  2.7 km/h 3.5 mph /  5.6 km/h 90 % 0.00 in /  0 mm
07:15 45.2 °F /  7.3 °C 42.4 °F /  5.8 °C 30.07 in /  1018.2 hPa North 2.0 mph /  3.2 km/h 3.5 mph /  5.6 km/h 90 % 0.00 in /  0 mm
07:20 45.7 °F /  7.6 °C 42.9 °F /  6.1 °C 30.08 in /  1018.5 hPa NNE 1.6 mph /  2.6 km/h 2.3 mph /  3.7 km/h 90 % 0.00 in /  0 mm
07:25 46.3 °F /  7.9 °C 43.2 °F /  6.2 °C 30.08 in /  1018.5 hPa NE 2.5 mph /  4 km/h 4.6 mph /  7.4 km/h 89 % 0.00 in /  0 mm
07:30 46.8 °F /  8.2 °C 43.7 °F /  6.5 °C 30.08 in /  1018.5 hPa NNE 3.5 mph /  5.6 km/h 4.6 mph /  7.4 km/h 89 % 0.00 in /  0 mm
07:35 47.3 °F /  8.5 °C 43.6 °F /  6.4 °C 30.08 in /  1018.5 hPa NNE 1.7 mph /  2.7 km/h 2.3 mph /  3.7 km/h 87 % 0.00 in /  0 mm
07:40 47.8 °F /  8.8 °C 43.8 °F /  6.6 °C 30.08 in /  1018.5 hPa NNE 0.7 mph /  1.1 km/h 3.5 mph /  5.6 km/h 86 % 0.00 in /  0 mm
07:42 48.1 °F /  8.9 °C 44.1 °F /  6.7 °C 30.09 in /  1018.8 hPa North 2.6 mph /  4.2 km/h 4.6 mph /  7.4 km/h 86 % 0.00 in /  0 mm
07:47 48.4 °F /  9.1 °C 43.5 °F /  6.4 °C 30.09 in /  1018.8 hPa NNE 2.0 mph /  3.2 km/h 3.5 mph /  5.6 km/h 83 % 0.00 in /  0 mm
07:52 48.8 °F /  9.3 °C 43.9 °F /  6.6 °C 30.09 in /  1018.8 hPa NNE 3.1 mph /  5 km/h 5.0 mph /  8 km/h 83 % 0.00 in /  0 mm
07:57 49.1 °F /  9.5 °C 43.8 °F /  6.6 °C 30.09 in /  1018.8 hPa NNE 3.0 mph /  4.8 km/h 4.6 mph /  7.4 km/h 82 % 0.00 in /  0 mm
08:02 49.4 °F /  9.7 °C 44.1 °F /  6.7 °C 30.09 in /  1018.8 hPa North 0.9 mph /  1.4 km/h 2.3 mph /  3.7 km/h 82 % 0.00 in /  0 mm
08:07 49.6 °F /  9.8 °C 43.7 °F /  6.5 °C 30.09 in /  1018.8 hPa North 1.8 mph /  2.9 km/h 3.5 mph /  5.6 km/h 80 % 0.00 in /  0 mm
08:12 49.7 °F /  9.8 °C 44.1 °F /  6.7 °C 30.09 in /  1018.8 hPa Calm   1.2 mph /  1.9 km/h 81 % 0.00 in /  0 mm
08:17 49.7 °F /  9.8 °C 43.5 °F /  6.4 °C 30.10 in /  1019.2 hPa North 3.0 mph /  4.8 km/h 4.6 mph /  7.4 km/h 79 % 0.00 in /  0 mm
08:22 49.7 °F /  9.8 °C 43.5 °F /  6.4 °C 30.09 in /  1018.8 hPa NNW 2.5 mph /  4 km/h 3.5 mph /  5.6 km/h 79 % 0.00 in /  0 mm
08:27 49.8 °F /  9.9 °C 43.5 °F /  6.4 °C 30.09 in /  1018.8 hPa North 0.9 mph /  1.4 km/h 2.3 mph /  3.7 km/h 79 % 0.00 in /  0 mm
08:32 49.9 °F /  9.9 °C 43.3 °F /  6.3 °C 30.09 in /  1018.8 hPa NW 2.4 mph /  3.9 km/h 3.5 mph /  5.6 km/h 78 % 0.00 in /  0 mm
08:37 50.1 °F /  10.1 °C 43.2 °F /  6.2 °C 30.09 in /  1018.8 hPa NNW 1.8 mph /  2.9 km/h 3.5 mph /  5.6 km/h 77 % 0.00 in /  0 mm
08:43 50.4 °F /  10.2 °C 43.1 °F /  6.2 °C 30.10 in /  1019.2 hPa NNW 1.4 mph /  2.3 km/h 3.5 mph /  5.6 km/h 76 % 0.00 in /  0 mm
08:48 50.7 °F /  10.4 °C 43.1 °F /  6.2 °C 30.09 in /  1018.8 hPa North 2.4 mph /  3.9 km/h 3.5 mph /  5.6 km/h 75 % 0.00 in /  0 mm
08:53 51.2 °F /  10.7 °C 44.2 °F /  6.8 °C 30.10 in /  1019.2 hPa ENE 1.2 mph /  1.9 km/h 4.0 mph /  6.4 km/h 77 % 0.00 in /  0 mm
08:58 51.7 °F /  10.9 °C 44.7 °F /  7.1 °C 30.10 in /  1019.2 hPa NE 1.0 mph /  1.6 km/h 2.3 mph /  3.7 km/h 77 % 0.00 in /  0 mm
09:03 52.2 °F /  11.2 °C 44.5 °F /  6.9 °C 30.10 in /  1019.2 hPa NNE 0.9 mph /  1.4 km/h 3.5 mph /  5.6 km/h 75 % 0.00 in /  0 mm
09:08 52.9 °F /  11.6 °C 45.2 °F /  7.3 °C 30.10 in /  1019.2 hPa NNW 1.3 mph /  2.1 km/h 3.5 mph /  5.6 km/h 75 % 0.00 in /  0 mm
09:13 53.2 °F /  11.8 °C 44.0 °F /  6.7 °C 30.10 in /  1019.2 hPa NW 1.2 mph /  1.9 km/h 3.5 mph /  5.6 km/h 71 % 0.00 in /  0 mm
09:18 53.8 °F /  12.1 °C 45.0 °F /  7.2 °C 30.10 in /  1019.2 hPa NNW 0.5 mph /  0.8 km/h 3.5 mph /  5.6 km/h 72 % 0.00 in /  0 mm
09:23 54.0 °F /  12.2 °C 44.4 °F /  6.9 °C 30.10 in /  1019.2 hPa NNW 1.2 mph /  1.9 km/h 3.5 mph /  5.6 km/h 70 % 0.00 in /  0 mm
09:28 54.2 °F /  12.3 °C 45.4 °F /  7.4 °C 30.10 in /  1019.2 hPa NNW 1.5 mph /  2.4 km/h 3.0 mph /  4.8 km/h 72 % 0.00 in /  0 mm
09:33 54.6 °F /  12.6 °C 45.0 °F /  7.2 °C 30.10 in /  1019.2 hPa NNE 2.2 mph /  3.5 km/h 3.5 mph /  5.6 km/h 70 % 0.00 in /  0 mm
09:38 55.0 °F /  12.8 °C 44.6 °F /  7 °C 30.10 in /  1019.2 hPa North 1.4 mph /  2.3 km/h 3.5 mph /  5.6 km/h 68 % 0.00 in /  0 mm
09:43 55.4 °F /  13 °C 45.0 °F /  7.2 °C 30.10 in /  1019.2 hPa NNE 1.8 mph /  2.9 km/h 3.5 mph /  5.6 km/h 68 % 0.00 in /  0 mm
09:48 56.0 °F /  13.3 °C 45.2 °F /  7.3 °C 30.10 in /  1019.2 hPa ENE 1.7 mph /  2.7 km/h 3.5 mph /  5.6 km/h 67 % 0.00 in /  0 mm
09:53 56.2 °F /  13.4 °C 43.3 °F /  6.3 °C 30.10 in /  1019.2 hPa ENE 1.5 mph /  2.4 km/h 4.6 mph /  7.4 km/h 62 % 0.00 in /  0 mm
09:58 56.1 °F /  13.4 °C 44.1 °F /  6.7 °C 30.10 in /  1019.2 hPa NE 0.9 mph /  1.4 km/h 3.0 mph /  4.8 km/h 64 % 0.00 in /  0 mm
10:03 56.4 °F /  13.6 °C 43.1 °F /  6.2 °C 30.10 in /  1019.2 hPa ENE 2.5 mph /  4 km/h 3.5 mph /  5.6 km/h 61 % 0.00 in /  0 mm
10:08 56.4 °F /  13.6 °C 44.8 °F /  7.1 °C 30.10 in /  1019.2 hPa East 1.9 mph /  3.1 km/h 3.5 mph /  5.6 km/h 65 % 0.00 in /  0 mm
10:13 56.5 °F /  13.6 °C 43.6 °F /  6.4 °C 30.10 in /  1019.2 hPa NE 1.0 mph /  1.6 km/h 2.3 mph /  3.7 km/h 62 % 0.00 in /  0 mm
10:18 56.8 °F /  13.8 °C 45.6 °F /  7.6 °C 30.10 in /  1019.2 hPa NNE 1.4 mph /  2.3 km/h 3.5 mph /  5.6 km/h 66 % 0.00 in /  0 mm
10:23 57.5 °F /  14.2 °C 45.0 °F /  7.2 °C 30.09 in /  1018.8 hPa ENE 0.5 mph /  0.8 km/h 3.5 mph /  5.6 km/h 63 % 0.00 in /  0 mm
10:28 57.8 °F /  14.3 °C 44.0 °F /  6.7 °C 30.10 in /  1019.2 hPa ENE 1.4 mph /  2.3 km/h 3.5 mph /  5.6 km/h 60 % 0.00 in /  0 mm
10:33 57.7 °F /  14.3 °C 43.5 °F /  6.4 °C 30.09 in /  1018.8 hPa East 0.9 mph /  1.4 km/h 4.6 mph /  7.4 km/h 59 % 0.00 in /  0 mm
10:35 57.8 °F /  14.3 °C 43.1 °F /  6.2 °C 30.10 in /  1019.2 hPa ENE 2.2 mph /  3.5 km/h 4.6 mph /  7.4 km/h 58 % 0.00 in /  0 mm
10:40 57.7 °F /  14.3 °C 42.1 °F /  5.6 °C 30.10 in /  1019.2 hPa ENE 2.0 mph /  3.2 km/h 3.5 mph /  5.6 km/h 56 % 0.00 in /  0 mm
10:45 57.7 °F /  14.3 °C 42.6 °F /  5.9 °C 30.10 in /  1019.2 hPa ESE 1.2 mph /  1.9 km/h 3.0 mph /  4.8 km/h 57 % 0.00 in /  0 mm
10:50 58.0 °F /  14.4 °C 43.3 °F /  6.3 °C 30.10 in /  1019.2 hPa NE 1.4 mph /  2.3 km/h 2.3 mph /  3.7 km/h 58 % 0.00 in /  0 mm
10:55 58.2 °F /  14.6 °C 44.4 °F /  6.9 °C 30.09 in /  1018.8 hPa ENE 3.1 mph /  5 km/h 4.0 mph /  6.4 km/h 60 % 0.00 in /  0 mm
11:00 58.6 °F /  14.8 °C 46.0 °F /  7.8 °C 30.10 in /  1019.2 hPa ENE 2.0 mph /  3.2 km/h 3.5 mph /  5.6 km/h 63 % 0.00 in /  0 mm
11:05 59.1 °F /  15.1 °C 43.9 °F /  6.6 °C 30.09 in /  1018.8 hPa ENE 1.8 mph /  2.9 km/h 3.5 mph /  5.6 km/h 57 % 0.00 in /  0 mm
11:10 59.2 °F /  15.1 °C 44.0 °F /  6.7 °C 30.10 in /  1019.2 hPa ENE 2.1 mph /  3.4 km/h 3.5 mph /  5.6 km/h 57 % 0.00 in /  0 mm
11:15 59.5 °F /  15.3 °C 42.8 °F /  6 °C 30.09 in /  1018.8 hPa NE 2.0 mph /  3.2 km/h 3.5 mph /  5.6 km/h 54 % 0.00 in /  0 mm
11:20 59.8 °F /  15.4 °C 44.1 °F /  6.7 °C 30.10 in /  1019.2 hPa ENE 0.7 mph /  1.1 km/h 2.3 mph /  3.7 km/h 56 % 0.00 in /  0 mm
11:25 59.9 °F /  15.5 °C 45.1 °F /  7.3 °C 30.10 in /  1019.2 hPa ENE 1.4 mph /  2.3 km/h 3.5 mph /  5.6 km/h 58 % 0.00 in /  0 mm
11:30 60.2 °F /  15.7 °C 45.4 °F /  7.4 °C 30.10 in /  1019.2 hPa ENE 3.7 mph /  6 km/h 5.0 mph /  8 km/h 58 % 0.00 in /  0 mm
11:35 60.1 °F /  15.6 °C 43.4 °F /  6.3 °C 30.10 in /  1019.2 hPa NNE 3.3 mph /  5.3 km/h 5.8 mph /  9.3 km/h 54 % 0.00 in /  0 mm
11:40 60.4 °F /  15.8 °C 41.7 °F /  5.4 °C 30.10 in /  1019.2 hPa ENE 1.6 mph /  2.6 km/h 4.6 mph /  7.4 km/h 50 % 0.00 in /  0 mm
11:45 60.4 °F /  15.8 °C 43.2 °F /  6.2 °C 30.10 in /  1019.2 hPa ENE 2.1 mph /  3.4 km/h 3.5 mph /  5.6 km/h 53 % 0.00 in /  0 mm
11:50 60.3 °F /  15.7 °C 45.0 °F /  7.2 °C 30.10 in /  1019.2 hPa NE 1.7 mph /  2.7 km/h 3.5 mph /  5.6 km/h 57 % 0.00 in /  0 mm
11:55 60.3 °F /  15.7 °C 41.6 °F /  5.3 °C 30.10 in /  1019.2 hPa NE 0.9 mph /  1.4 km/h 3.5 mph /  5.6 km/h 50 % 0.00 in /  0 mm
12:00 60.3 °F /  15.7 °C 45.0 °F /  7.2 °C 30.09 in /  1018.8 hPa NE 0.8 mph /  1.3 km/h 2.3 mph /  3.7 km/h 57 % 0.00 in /  0 mm
12:05 61.5 °F /  16.4 °C 47.0 °F /  8.3 °C 30.09 in /  1018.8 hPa North 0.3 mph /  0.5 km/h 2.0 mph /  3.2 km/h 59 % 0.00 in /  0 mm
12:11 62.3 °F /  16.8 °C 44.4 °F /  6.9 °C 30.09 in /  1018.8 hPa NNE 0.8 mph /  1.3 km/h 2.3 mph /  3.7 km/h 52 % 0.00 in /  0 mm
12:16 62.2 °F /  16.8 °C 45.8 °F /  7.7 °C 30.09 in /  1018.8 hPa NNE 2.6 mph /  4.2 km/h 4.0 mph /  6.4 km/h 55 % 0.00 in /  0 mm
12:21 62.9 °F /  17.2 °C 46.5 °F /  8.1 °C 30.08 in /  1018.5 hPa NNE 1.7 mph /  2.7 km/h 2.3 mph /  3.7 km/h 55 % 0.00 in /  0 mm
12:26 63.7 °F /  17.6 °C 46.2 °F /  7.9 °C 30.09 in /  1018.8 hPa NNE 1.4 mph /  2.3 km/h 2.3 mph /  3.7 km/h 53 % 0.00 in /  0 mm
12:31 64.0 °F /  17.8 °C 43.9 °F /  6.6 °C 30.08 in /  1018.5 hPa North 0.3 mph /  0.5 km/h 2.3 mph /  3.7 km/h 48 % 0.00 in /  0 mm
12:36 63.9 °F /  17.7 °C 43.8 °F /  6.6 °C 30.08 in /  1018.5 hPa NE 0.4 mph /  0.6 km/h 3.5 mph /  5.6 km/h 48 % 0.00 in /  0 mm
12:41 64.4 °F /  18 °C 45.3 °F /  7.4 °C 30.09 in /  1018.8 hPa NNW 0.6 mph /  1 km/h 3.5 mph /  5.6 km/h 50 % 0.00 in /  0 mm
12:46 64.5 °F /  18.1 °C 44.9 °F /  7.2 °C 30.09 in /  1018.8 hPa NNE 0.6 mph /  1 km/h 2.3 mph /  3.7 km/h 49 % 0.00 in /  0 mm
12:51 64.5 °F /  18.1 °C 43.3 °F /  6.3 °C 30.09 in /  1018.8 hPa West 8.2 mph /  13.2 km/h 9.2 mph /  14.8 km/h 46 % 0.00 in /  0 mm
12:56 63.9 °F /  17.7 °C 45.9 °F /  7.7 °C 30.09 in /  1018.8 hPa WSW 1.0 mph /  1.6 km/h 3.5 mph /  5.6 km/h 52 % 0.00 in /  0 mm
13:01 64.0 °F /  17.8 °C 42.2 °F /  5.7 °C 30.09 in /  1018.8 hPa WSW 1.5 mph /  2.4 km/h 3.5 mph /  5.6 km/h 45 % 0.00 in /  0 mm
13:04 63.9 °F /  17.7 °C 43.3 °F /  6.3 °C 30.09 in /  1018.8 hPa WSW 1.6 mph /  2.6 km/h 4.0 mph /  6.4 km/h 47 % 0.00 in /  0 mm
13:09 63.7 °F /  17.6 °C 41.9 °F /  5.5 °C 30.08 in /  1018.5 hPa WNW 2.5 mph /  4 km/h 3.5 mph /  5.6 km/h 45 % 0.00 in /  0 mm
13:14 63.8 °F /  17.7 °C 42.6 °F /  5.9 °C 30.08 in /  1018.5 hPa WNW 2.9 mph /  4.7 km/h 6.0 mph /  9.7 km/h 46 % 0.00 in /  0 mm
13:19 63.5 °F /  17.5 °C 42.3 °F /  5.7 °C 30.08 in /  1018.5 hPa West 0.5 mph /  0.8 km/h 2.3 mph /  3.7 km/h 46 % 0.00 in /  0 mm
13:24 64.0 °F /  17.8 °C 45.0 °F /  7.2 °C 30.08 in /  1018.5 hPa WSW 1.2 mph /  1.9 km/h 2.3 mph /  3.7 km/h 50 % 0.00 in /  0 mm
13:30 64.5 °F /  18.1 °C 45.4 °F /  7.4 °C 30.08 in /  1018.5 hPa WNW 1.0 mph /  1.6 km/h 3.0 mph /  4.8 km/h 50 % 0.00 in /  0 mm
13:46 64.8 °F /  18.2 °C 44.1 °F /  6.7 °C 30.07 in /  1018.2 hPa West 1.0 mph /  1.6 km/h 2.0 mph /  3.2 km/h 47 % 0.00 in /  0 mm
13:51 64.9 °F /  18.3 °C 43.6 °F /  6.4 °C 30.07 in /  1018.2 hPa SSW 1.2 mph /  1.9 km/h 4.0 mph /  6.4 km/h 46 % 0.00 in /  0 mm
13:56 65.0 °F /  18.3 °C 41.9 °F /  5.5 °C 30.07 in /  1018.2 hPa SW 1.6 mph /  2.6 km/h 3.5 mph /  5.6 km/h 43 % 0.00 in /  0 mm
14:01 64.9 °F /  18.3 °C 41.9 °F /  5.5 °C 30.07 in /  1018.2 hPa WSW 1.5 mph /  2.4 km/h 4.6 mph /  7.4 km/h 43 % 0.00 in /  0 mm
14:06 64.9 °F /  18.3 °C 43.6 °F /  6.4 °C 30.07 in /  1018.2 hPa NW 0.3 mph /  0.5 km/h 2.3 mph /  3.7 km/h 46 % 0.00 in /  0 mm
14:11 65.4 °F /  18.6 °C 41.7 °F /  5.4 °C 30.07 in /  1018.2 hPa SW 4.0 mph /  6.4 km/h 4.6 mph /  7.4 km/h 42 % 0.00 in /  0 mm
14:16 65.6 °F /  18.7 °C 43.1 °F /  6.2 °C 30.06 in /  1017.8 hPa SW 0.2 mph /  0.3 km/h 1.2 mph /  1.9 km/h 44 % 0.00 in /  0 mm
14:18 65.7 °F /  18.7 °C 44.3 °F /  6.8 °C 30.06 in /  1017.8 hPa SW 0.4 mph /  0.6 km/h 2.3 mph /  3.7 km/h 46 % 0.00 in /  0 mm
14:23 65.7 °F /  18.7 °C 42.6 °F /  5.9 °C 30.05 in /  1017.5 hPa West 0.9 mph /  1.4 km/h 3.5 mph /  5.6 km/h 43 % 0.00 in /  0 mm
14:28 65.8 °F /  18.8 °C 44.4 °F /  6.9 °C 30.06 in /  1017.8 hPa ENE 2.4 mph /  3.9 km/h 4.0 mph /  6.4 km/h 46 % 0.00 in /  0 mm
14:33 65.6 °F /  18.7 °C 42.5 °F /  5.8 °C 30.04 in /  1017.2 hPa ENE 1.6 mph /  2.6 km/h 4.0 mph /  6.4 km/h 43 % 0.00 in /  0 mm
14:38 65.3 °F /  18.5 °C 44.5 °F /  6.9 °C 30.04 in /  1017.2 hPa NE 2.2 mph /  3.5 km/h 3.5 mph /  5.6 km/h 47 % 0.00 in /  0 mm
14:39 65.4 °F /  18.6 °C 44.1 °F /  6.7 °C 30.04 in /  1017.2 hPa NNE 1.7 mph /  2.7 km/h 3.5 mph /  5.6 km/h 46 % 0.00 in /  0 mm
14:44 65.3 °F /  18.5 °C 42.2 °F /  5.7 °C 30.04 in /  1017.2 hPa ENE 3.3 mph /  5.3 km/h 5.8 mph /  9.3 km/h 43 % 0.00 in /  0 mm
14:49 65.0 °F /  18.3 °C 42.5 °F /  5.8 °C 30.04 in /  1017.2 hPa NE 2.1 mph /  3.4 km/h 3.5 mph /  5.6 km/h 44 % 0.00 in /  0 mm
14:54 64.8 °F /  18.2 °C 45.2 °F /  7.3 °C 30.04 in /  1017.2 hPa NNE 1.2 mph /  1.9 km/h 3.5 mph /  5.6 km/h 49 % 0.00 in /  0 mm
14:59 64.7 °F /  18.2 °C 42.3 °F /  5.7 °C 30.04 in /  1017.2 hPa ENE 3.4 mph /  5.5 km/h 4.6 mph /  7.4 km/h 44 % 0.00 in /  0 mm
15:04 64.7 °F /  18.2 °C 45.1 °F /  7.3 °C 30.04 in /  1017.2 hPa NE 1.8 mph /  2.9 km/h 5.0 mph /  8 km/h 49 % 0.00 in /  0 mm
15:09 64.0 °F /  17.8 °C 41.0 °F /  5 °C 30.04 in /  1017.2 hPa ENE 2.8 mph /  4.5 km/h 3.5 mph /  5.6 km/h 43 % 0.00 in /  0 mm
15:14 63.7 °F /  17.6 °C 43.6 °F /  6.4 °C 30.04 in /  1017.2 hPa North 1.7 mph /  2.7 km/h 3.5 mph /  5.6 km/h 48 % 0.00 in /  0 mm
15:19 63.6 °F /  17.6 °C 42.4 °F /  5.8 °C 30.04 in /  1017.2 hPa ENE 2.6 mph /  4.2 km/h 3.5 mph /  5.6 km/h 46 % 0.00 in /  0 mm
15:24 63.5 °F /  17.5 °C 42.3 °F /  5.7 °C 30.03 in /  1016.8 hPa NE 1.3 mph /  2.1 km/h 3.5 mph /  5.6 km/h 46 % 0.00 in /  0 mm
15:29 63.5 °F /  17.5 °C 41.8 °F /  5.4 °C 30.03 in /  1016.8 hPa ENE 0.4 mph /  0.6 km/h 2.3 mph /  3.7 km/h 45 % 0.00 in /  0 mm
15:34 63.5 °F /  17.5 °C 40.6 °F /  4.8 °C 30.03 in /  1016.8 hPa ENE 0.1 mph /  0.2 km/h 1.2 mph /  1.9 km/h 43 % 0.00 in /  0 mm
15:39 63.5 °F /  17.5 °C 42.9 °F /  6.1 °C 30.03 in /  1016.8 hPa SSW 1.8 mph /  2.9 km/h 4.6 mph /  7.4 km/h 47 % 0.00 in /  0 mm
15:45 63.3 °F /  17.4 °C 44.3 °F /  6.8 °C 30.03 in /  1016.8 hPa SSE 3.8 mph /  6.1 km/h 5.8 mph /  9.3 km/h 50 % 0.00 in /  0 mm
15:50 62.8 °F /  17.1 °C 44.9 °F /  7.2 °C 30.03 in /  1016.8 hPa SSE 3.6 mph /  5.8 km/h 10.4 mph /  16.7 km/h 52 % 0.00 in /  0 mm
15:55 62.4 °F /  16.9 °C 46.0 °F /  7.8 °C 30.03 in /  1016.8 hPa SSE 1.3 mph /  2.1 km/h 4.0 mph /  6.4 km/h 55 % 0.00 in /  0 mm
16:00 62.3 °F /  16.8 °C 45.4 °F /  7.4 °C 30.03 in /  1016.8 hPa SSW 4.4 mph /  7.1 km/h 6.9 mph /  11.1 km/h 54 % 0.00 in /  0 mm
16:05 62.3 °F /  16.8 °C 46.4 °F /  8 °C 30.03 in /  1016.8 hPa SW 1.5 mph /  2.4 km/h 5.0 mph /  8 km/h 56 % 0.00 in /  0 mm
16:10 62.3 °F /  16.8 °C 45.4 °F /  7.4 °C 30.03 in /  1016.8 hPa SSW 3.4 mph /  5.5 km/h 4.6 mph /  7.4 km/h 54 % 0.00 in /  0 mm
16:15 62.3 °F /  16.8 °C 45.9 °F /  7.7 °C 30.03 in /  1016.8 hPa WSW 1.5 mph /  2.4 km/h 3.5 mph /  5.6 km/h 55 % 0.00 in /  0 mm
16:20 62.3 °F /  16.8 °C 45.9 °F /  7.7 °C 30.03 in /  1016.8 hPa SSW 3.1 mph /  5 km/h 4.6 mph /  7.4 km/h 55 % 0.00 in /  0 mm
16:25 62.2 °F /  16.8 °C 45.8 °F /  7.7 °C 30.03 in /  1016.8 hPa SSW 2.2 mph /  3.5 km/h 4.6 mph /  7.4 km/h 55 % 0.00 in /  0 mm
16:30 62.2 °F /  16.8 °C 45.3 °F /  7.4 °C 30.03 in /  1016.8 hPa SW 1.7 mph /  2.7 km/h 3.5 mph /  5.6 km/h 54 % 0.00 in /  0 mm
16:35 62.2 °F /  16.8 °C 45.8 °F /  7.7 °C 30.03 in /  1016.8 hPa SSW 1.0 mph /  1.6 km/h 3.5 mph /  5.6 km/h 55 % 0.00 in /  0 mm
16:40 62.3 °F /  16.8 °C 45.9 °F /  7.7 °C 30.03 in /  1016.8 hPa SW 2.5 mph /  4 km/h 5.0 mph /  8 km/h 55 % 0.00 in /  0 mm
16:45 62.3 °F /  16.8 °C 45.9 °F /  7.7 °C 30.03 in /  1016.8 hPa SSW 2.2 mph /  3.5 km/h 5.8 mph /  9.3 km/h 55 % 0.00 in /  0 mm
16:50 62.2 °F /  16.8 °C 45.3 °F /  7.4 °C 30.03 in /  1016.8 hPa WSW 4.3 mph /  6.9 km/h 6.9 mph /  11.1 km/h 54 % 0.00 in /  0 mm
16:55 62.2 °F /  16.8 °C 45.8 °F /  7.7 °C 30.03 in /  1016.8 hPa SW 1.4 mph /  2.3 km/h 3.5 mph /  5.6 km/h 55 % 0.00 in /  0 mm
17:00 62.1 °F /  16.7 °C 45.7 °F /  7.6 °C 30.04 in /  1017.2 hPa SSW 2.8 mph /  4.5 km/h 4.0 mph /  6.4 km/h 55 % 0.00 in /  0 mm
17:01 62.1 °F /  16.7 °C 45.7 °F /  7.6 °C 30.04 in /  1017.2 hPa SSE 1.9 mph /  3.1 km/h 3.5 mph /  5.6 km/h 55 % 0.00 in /  0 mm
17:06 61.8 °F /  16.6 °C 45.0 °F /  7.2 °C 30.04 in /  1017.2 hPa SSW 3.9 mph /  6.3 km/h 8.1 mph /  13 km/h 54 % 0.00 in /  0 mm
17:11 61.5 °F /  16.4 °C 44.7 °F /  7.1 °C 30.04 in /  1017.2 hPa SSW 3.7 mph /  6 km/h 5.8 mph /  9.3 km/h 54 % 0.00 in /  0 mm
17:16 61.3 °F /  16.3 °C 45.0 °F /  7.2 °C 30.04 in /  1017.2 hPa South 1.1 mph /  1.8 km/h 6.9 mph /  11.1 km/h 55 % 0.00 in /  0 mm
17:21 61.3 °F /  16.3 °C 45.0 °F /  7.2 °C 30.04 in /  1017.2 hPa SE 2.6 mph /  4.2 km/h 4.6 mph /  7.4 km/h 55 % 0.00 in /  0 mm
17:26 61.1 °F /  16.2 °C 44.8 °F /  7.1 °C 30.04 in /  1017.2 hPa SSE 1.1 mph /  1.8 km/h 4.6 mph /  7.4 km/h 55 % 0.00 in /  0 mm
17:31 60.9 °F /  16.1 °C 44.6 °F /  7 °C 30.04 in /  1017.2 hPa SE 0.8 mph /  1.3 km/h 6.9 mph /  11.1 km/h 55 % 0.00 in /  0 mm
17:36 60.4 °F /  15.8 °C 44.6 °F /  7 °C 30.04 in /  1017.2 hPa SSE 4.5 mph /  7.2 km/h 11.0 mph /  17.7 km/h 56 % 0.00 in /  0 mm
17:41 59.8 °F /  15.4 °C 43.6 °F /  6.4 °C 30.04 in /  1017.2 hPa South 2.8 mph /  4.5 km/h 4.0 mph /  6.4 km/h 55 % 0.00 in /  0 mm
17:46 59.5 °F /  15.3 °C 43.8 °F /  6.6 °C 30.05 in /  1017.5 hPa SSW 2.2 mph /  3.5 km/h 4.6 mph /  7.4 km/h 56 % 0.00 in /  0 mm
17:51 59.4 °F /  15.2 °C 44.2 °F /  6.8 °C 30.05 in /  1017.5 hPa South 2.4 mph /  3.9 km/h 5.8 mph /  9.3 km/h 57 % 0.00 in /  0 mm
17:56 59.2 °F /  15.1 °C 44.0 °F /  6.7 °C 30.05 in /  1017.5 hPa SSW 5.8 mph /  9.3 km/h 6.9 mph /  11.1 km/h 57 % 0.00 in /  0 mm
18:01 58.9 °F /  14.9 °C 43.7 °F /  6.5 °C 30.05 in /  1017.5 hPa SSW 3.3 mph /  5.3 km/h 8.1 mph /  13 km/h 57 % 0.00 in /  0 mm
18:06 58.6 °F /  14.8 °C 43.9 °F /  6.6 °C 30.05 in /  1017.5 hPa South 3.7 mph /  6 km/h 5.8 mph /  9.3 km/h 58 % 0.00 in /  0 mm
18:11 58.2 °F /  14.6 °C 43.5 °F /  6.4 °C 30.05 in /  1017.5 hPa South 0.8 mph /  1.3 km/h 3.0 mph /  4.8 km/h 58 % 0.00 in /  0 mm
18:16 58.0 °F /  14.4 °C 44.2 °F /  6.8 °C 30.05 in /  1017.5 hPa South 3.8 mph /  6.1 km/h 8.1 mph /  13 km/h 60 % 0.00 in /  0 mm
18:21 57.7 °F /  14.3 °C 43.9 °F /  6.6 °C 30.04 in /  1017.2 hPa South 2.0 mph /  3.2 km/h 5.8 mph /  9.3 km/h 60 % 0.00 in /  0 mm
18:26 57.2 °F /  14 °C 43.9 °F /  6.6 °C 30.05 in /  1017.5 hPa SE 4.2 mph /  6.8 km/h 7.0 mph /  11.3 km/h 61 % 0.00 in /  0 mm
18:31 56.7 °F /  13.7 °C 43.4 °F /  6.3 °C 30.05 in /  1017.5 hPa SE 2.8 mph /  4.5 km/h 5.8 mph /  9.3 km/h 61 % 0.00 in /  0 mm
18:36 56.3 °F /  13.5 °C 43.4 °F /  6.3 °C 30.05 in /  1017.5 hPa SSW 3.3 mph /  5.3 km/h 8.0 mph /  12.9 km/h 62 % 0.00 in /  0 mm
18:41 55.9 °F /  13.3 °C 43.1 °F /  6.2 °C 30.05 in /  1017.5 hPa SSW 4.6 mph /  7.4 km/h 6.9 mph /  11.1 km/h 62 % 0.00 in /  0 mm
18:46 55.4 °F /  13 °C 43.4 °F /  6.3 °C 30.05 in /  1017.5 hPa South 3.0 mph /  4.8 km/h 5.8 mph /  9.3 km/h 64 % 0.00 in /  0 mm
18:51 55.0 °F /  12.8 °C 43.0 °F /  6.1 °C 30.05 in /  1017.5 hPa SSW 2.9 mph /  4.7 km/h 8.1 mph /  13 km/h 64 % 0.00 in /  0 mm
18:56 54.6 °F /  12.6 °C 42.7 °F /  5.9 °C 30.05 in /  1017.5 hPa SSW 5.5 mph /  8.9 km/h 11.5 mph /  18.5 km/h 64 % 0.00 in /  0 mm
19:01 54.2 °F /  12.3 °C 42.7 °F /  5.9 °C 30.05 in /  1017.5 hPa South 0.9 mph /  1.4 km/h 4.6 mph /  7.4 km/h 65 % 0.00 in /  0 mm
19:06 53.9 °F /  12.2 °C 42.4 °F /  5.8 °C 30.06 in /  1017.8 hPa South 2.4 mph /  3.9 km/h 10.4 mph /  16.7 km/h 65 % 0.00 in /  0 mm
19:11 53.6 °F /  12 °C 42.1 °F /  5.6 °C 30.05 in /  1017.5 hPa South 3.4 mph /  5.5 km/h 5.0 mph /  8 km/h 65 % 0.00 in /  0 mm
19:16 53.3 °F /  11.8 °C 42.2 °F /  5.7 °C 30.05 in /  1017.5 hPa South 2.5 mph /  4 km/h 5.8 mph /  9.3 km/h 66 % 0.00 in /  0 mm
19:21 53.1 °F /  11.7 °C 41.6 °F /  5.3 °C 30.06 in /  1017.8 hPa SW 1.0 mph /  1.6 km/h 4.0 mph /  6.4 km/h 65 % 0.00 in /  0 mm
19:27 52.9 °F /  11.6 °C 41.8 °F /  5.4 °C 30.06 in /  1017.8 hPa WSW 0.6 mph /  1 km/h 2.3 mph /  3.7 km/h 66 % 0.00 in /  0 mm
19:32 52.6 °F /  11.4 °C 41.6 °F /  5.3 °C 30.06 in /  1017.8 hPa South 2.2 mph /  3.5 km/h 6.9 mph /  11.1 km/h 66 % 0.00 in /  0 mm
19:37 52.4 °F /  11.3 °C 41.8 °F /  5.4 °C 30.06 in /  1017.8 hPa SSW 2.1 mph /  3.4 km/h 3.5 mph /  5.6 km/h 67 % 0.00 in /  0 mm
19:38 52.3 °F /  11.3 °C 41.7 °F /  5.4 °C 30.06 in /  1017.8 hPa SSW 2.5 mph /  4 km/h 4.6 mph /  7.4 km/h 67 % 0.00 in /  0 mm
19:43 52.1 °F /  11.2 °C 41.5 °F /  5.3 °C 30.06 in /  1017.8 hPa SSW 1.2 mph /  1.9 km/h 3.5 mph /  5.6 km/h 67 % 0.00 in /  0 mm
19:48 51.9 °F /  11.1 °C 41.7 °F /  5.4 °C 30.07 in /  1018.2 hPa SW 2.2 mph /  3.5 km/h 4.0 mph /  6.4 km/h 68 % 0.00 in /  0 mm
19:53 51.6 °F /  10.9 °C 41.4 °F /  5.2 °C 30.07 in /  1018.2 hPa South 1.1 mph /  1.8 km/h 5.8 mph /  9.3 km/h 68 % 0.00 in /  0 mm
19:58 51.3 °F /  10.7 °C 41.5 °F /  5.3 °C 30.07 in /  1018.2 hPa SSW 3.3 mph /  5.3 km/h 4.6 mph /  7.4 km/h 69 % 0.00 in /  0 mm
20:03 51.1 °F /  10.6 °C 41.3 °F /  5.2 °C 30.07 in /  1018.2 hPa South 1.1 mph /  1.8 km/h 6.9 mph /  11.1 km/h 69 % 0.00 in /  0 mm
20:08 50.8 °F /  10.4 °C 41.0 °F /  5 °C 30.07 in /  1018.2 hPa SW 2.8 mph /  4.5 km/h 6.0 mph /  9.7 km/h 69 % 0.00 in /  0 mm
20:13 50.6 °F /  10.3 °C 41.2 °F /  5.1 °C 30.07 in /  1018.2 hPa SSE 2.4 mph /  3.9 km/h 4.0 mph /  6.4 km/h 70 % 0.00 in /  0 mm
20:18 50.5 °F /  10.3 °C 41.1 °F /  5.1 °C 30.07 in /  1018.2 hPa South 4.9 mph /  7.9 km/h 9.2 mph /  14.8 km/h 70 % 0.00 in /  0 mm
20:23 50.3 °F /  10.2 °C 40.9 °F /  4.9 °C 30.07 in /  1018.2 hPa SSW 4.6 mph /  7.4 km/h 6.9 mph /  11.1 km/h 70 % 0.00 in /  0 mm
20:28 50.1 °F /  10.1 °C 41.1 °F /  5.1 °C 30.07 in /  1018.2 hPa SSW 3.2 mph /  5.1 km/h 5.8 mph /  9.3 km/h 71 % 0.00 in /  0 mm
20:33 50.0 °F /  10 °C 41.3 °F /  5.2 °C 30.07 in /  1018.2 hPa South 3.0 mph /  4.8 km/h 5.8 mph /  9.3 km/h 72 % 0.00 in /  0 mm
20:38 49.9 °F /  9.9 °C 41.2 °F /  5.1 °C 30.07 in /  1018.2 hPa South 2.5 mph /  4 km/h 6.9 mph /  11.1 km/h 72 % 0.00 in /  0 mm
20:43 49.7 °F /  9.8 °C 41.4 °F /  5.2 °C 30.07 in /  1018.2 hPa SSW 1.2 mph /  1.9 km/h 5.8 mph /  9.3 km/h 73 % 0.00 in /  0 mm
20:48 49.6 °F /  9.8 °C 41.3 °F /  5.2 °C 30.08 in /  1018.5 hPa South 1.4 mph /  2.3 km/h 4.0 mph /  6.4 km/h 73 % 0.00 in /  0 mm
20:49 49.5 °F /  9.7 °C 41.2 °F /  5.1 °C 30.08 in /  1018.5 hPa WSW 2.1 mph /  3.4 km/h 4.6 mph /  7.4 km/h 73 % 0.00 in /  0 mm
20:54 49.5 °F /  9.7 °C 41.2 °F /  5.1 °C 30.08 in /  1018.5 hPa SSW 2.5 mph /  4 km/h 6.9 mph /  11.1 km/h 73 % 0.00 in /  0 mm
20:59 49.3 °F /  9.6 °C 41.4 °F /  5.2 °C 30.08 in /  1018.5 hPa SSW 3.0 mph /  4.8 km/h 5.8 mph /  9.3 km/h 74 % 0.00 in /  0 mm
21:04 49.2 °F /  9.6 °C 41.3 °F /  5.2 °C 30.08 in /  1018.5 hPa SSW 0.9 mph /  1.4 km/h 3.5 mph /  5.6 km/h 74 % 0.00 in /  0 mm
21:07 49.2 °F /  9.6 °C 41.3 °F /  5.2 °C 30.08 in /  1018.5 hPa SSW 3.3 mph /  5.3 km/h 6.9 mph /  11.1 km/h 74 % 0.00 in /  0 mm
21:12 49.2 °F /  9.6 °C 41.3 °F /  5.2 °C 30.08 in /  1018.5 hPa SSW 2.7 mph /  4.3 km/h 6.9 mph /  11.1 km/h 74 % 0.00 in /  0 mm
21:17 49.1 °F /  9.5 °C 41.5 °F /  5.3 °C 30.08 in /  1018.5 hPa SSW 0.7 mph /  1.1 km/h 4.6 mph /  7.4 km/h 75 % 0.00 in /  0 mm
21:22 49.0 °F /  9.4 °C 41.4 °F /  5.2 °C 30.09 in /  1018.8 hPa SW 3.1 mph /  5 km/h 5.8 mph /  9.3 km/h 75 % 0.00 in /  0 mm
21:27 49.0 °F /  9.4 °C 41.8 °F /  5.4 °C 30.09 in /  1018.8 hPa SW 3.1 mph /  5 km/h 4.6 mph /  7.4 km/h 76 % 0.00 in /  0 mm
21:32 48.9 °F /  9.4 °C 42.0 °F /  5.6 °C 30.09 in /  1018.8 hPa SW 3.1 mph /  5 km/h 9.2 mph /  14.8 km/h 77 % 0.00 in /  0 mm
21:37 48.8 °F /  9.3 °C 41.9 °F /  5.5 °C 30.10 in /  1019.2 hPa WSW 2.5 mph /  4 km/h 5.0 mph /  8 km/h 77 % 0.00 in /  0 mm
21:42 48.7 °F /  9.3 °C 41.8 °F /  5.4 °C 30.10 in /  1019.2 hPa WSW 1.1 mph /  1.8 km/h 3.5 mph /  5.6 km/h 77 % 0.00 in /  0 mm
21:47 48.7 °F /  9.3 °C 42.1 °F /  5.6 °C 30.10 in /  1019.2 hPa West 2.4 mph /  3.9 km/h 3.5 mph /  5.6 km/h 78 % 0.00 in /  0 mm
21:52 48.6 °F /  9.2 °C 42.0 °F /  5.6 °C 30.10 in /  1019.2 hPa WSW 2.5 mph /  4 km/h 6.0 mph /  9.7 km/h 78 % 0.00 in /  0 mm
21:57 48.6 °F /  9.2 °C 42.4 °F /  5.8 °C 30.10 in /  1019.2 hPa WSW 1.4 mph /  2.3 km/h 3.5 mph /  5.6 km/h 79 % 0.00 in /  0 mm
22:02 48.5 °F /  9.2 °C 42.3 °F /  5.7 °C 30.10 in /  1019.2 hPa Calm   1.2 mph /  1.9 km/h 79 % 0.00 in /  0 mm
22:07 48.5 °F /  9.2 °C 42.3 °F /  5.7 °C 30.10 in /  1019.2 hPa Calm     79 % 0.00 in /  0 mm
22:12 48.4 °F /  9.1 °C 42.2 °F /  5.7 °C 30.09 in /  1018.8 hPa WSW 1.6 mph /  2.6 km/h 3.5 mph /  5.6 km/h 79 % 0.00 in /  0 mm
22:17 48.4 °F /  9.1 °C 42.5 °F /  5.8 °C 30.10 in /  1019.2 hPa WSW 1.3 mph /  2.1 km/h 2.3 mph /  3.7 km/h 80 % 0.00 in /  0 mm
22:22 48.3 °F /  9.1 °C 42.4 °F /  5.8 °C 30.10 in /  1019.2 hPa Calm   3.5 mph /  5.6 km/h 80 % 0.00 in /  0 mm
22:27 48.3 °F /  9.1 °C 42.4 °F /  5.8 °C 30.10 in /  1019.2 hPa WSW 0.9 mph /  1.4 km/h 2.3 mph /  3.7 km/h 80 % 0.00 in /  0 mm
22:32 48.2 °F /  9 °C 42.3 °F /  5.7 °C 30.10 in /  1019.2 hPa WSW 0.6 mph /  1 km/h 2.3 mph /  3.7 km/h 80 % 0.00 in /  0 mm
22:37 48.1 °F /  8.9 °C 42.5 °F /  5.8 °C 30.10 in /  1019.2 hPa WSW 0.1 mph /  0.2 km/h 1.2 mph /  1.9 km/h 81 % 0.00 in /  0 mm
22:42 48.1 °F /  8.9 °C 42.5 °F /  5.8 °C 30.10 in /  1019.2 hPa WSW 0.8 mph /  1.3 km/h 3.0 mph /  4.8 km/h 81 % 0.00 in /  0 mm
22:48 47.9 °F /  8.8 °C 42.3 °F /  5.7 °C 30.11 in /  1019.5 hPa WSW 0.4 mph /  0.6 km/h 2.3 mph /  3.7 km/h 81 % 0.00 in /  0 mm
22:53 47.9 °F /  8.8 °C 42.7 °F /  5.9 °C 30.11 in /  1019.5 hPa SW 0.8 mph /  1.3 km/h 2.3 mph /  3.7 km/h 82 % 0.00 in /  0 mm
22:58 47.8 °F /  8.8 °C 42.9 °F /  6.1 °C 30.11 in /  1019.5 hPa SW 1.3 mph /  2.1 km/h 3.5 mph /  5.6 km/h 83 % 0.00 in /  0 mm
23:03 47.7 °F /  8.7 °C 42.8 °F /  6 °C 30.11 in /  1019.5 hPa SW 0.9 mph /  1.4 km/h 2.3 mph /  3.7 km/h 83 % 0.00 in /  0 mm
23:08 47.6 °F /  8.7 °C 42.7 °F /  5.9 °C 30.11 in /  1019.5 hPa WSW 3.1 mph /  5 km/h 3.5 mph /  5.6 km/h 83 % 0.00 in /  0 mm
23:13 47.6 °F /  8.7 °C 42.7 °F /  5.9 °C 30.10 in /  1019.2 hPa Calm   3.5 mph /  5.6 km/h 83 % 0.00 in /  0 mm
23:18 47.5 °F /  8.6 °C 42.6 °F /  5.9 °C 30.11 in /  1019.5 hPa WSW 0.8 mph /  1.3 km/h 2.3 mph /  3.7 km/h 83 % 0.00 in /  0 mm
23:23 47.5 °F /  8.6 °C 42.9 °F /  6.1 °C 30.11 in /  1019.5 hPa Calm   1.2 mph /  1.9 km/h 84 % 0.00 in /  0 mm
23:28 47.4 °F /  8.6 °C 42.8 °F /  6 °C 30.11 in /  1019.5 hPa Calm   2.3 mph /  3.7 km/h 84 % 0.00 in /  0 mm
23:33 47.4 °F /  8.6 °C 42.8 °F /  6 °C 30.11 in /  1019.5 hPa Calm     84 % 0.00 in /  0 mm
23:38 47.3 °F /  8.5 °C 43.0 °F /  6.1 °C 30.10 in /  1019.2 hPa Calm     85 % 0.00 in /  0 mm
23:43 47.2 °F /  8.4 °C 42.6 °F /  5.9 °C 30.10 in /  1019.2 hPa Calm     84 % 0.00 in /  0 mm
23:48 47.2 °F /  8.4 °C 42.6 °F /  5.9 °C 30.10 in /  1019.2 hPa Calm     84 % 0.00 in /  0 mm
23:53 47.0 °F /  8.3 °C 42.4 °F /  5.8 °C 30.10 in /  1019.2 hPa Calm     84 % 0.00 in /  0 mm
23:58 47.0 °F /  8.3 °C 42.7 °F /  5.9 °C 30.10 in /  1019.2 hPa Calm     85 % 0.00 in /  0 mm
Crab Meadow Weather
Compliments of Weather Underground - 3 mb

Script developed by  Jim McMurry - jmcmurry@mwt.net Adapted for the template by  Wim van der Kuil - Leuven-Template.eu

Extremes: A record low of - 128.6 degrees F was recorded at Vostok, Antarctica.